Helena, MT

4:17 AM MST on December 29, 2014 (GMT -0700)
Mooney | Change Station
CLOSE
Current Station
Airport
Location: Butte,
Elevation: 5545 ft
Nearby Weather Stations
Active Advisory: Winter Weather Advisory Active Notice: Local Storm Report

Elev 5545 ft 45.95 °N, 112.50 °W | Updated 24 minutes ago

Overcast
Overcast
3 °F
Feels Like 3 °F
N
0
Wind Variable Wind from North

Today
High -- | Low -- °F
--% Chance of Precip.
Yesterday
High -- | Low -- °F
Precip. -- in
8:12 AM 4:48 PM
First Quarter, 58% visible
Pressure 30.45 in
Visibility 6.0 miles
Clouds Overcast 3000 ft
Dew Point -1 °F
Humidity 84%
Rainfall 0.01 in
Snow Depth Not available.
UV 0 out of 12
Pollen .10 out of 12
Air Quality Not available.
Flu Activity Not available.
METAR KBTM 291053Z AUTO 00000KT 6SM -SN BR OVC030 M16/M18 A3019 RMK AO2 SNB40 SLP312 P0000 T11611183

More Conditions Fewer Conditions

Pressure 30.45 in
Visibility 6.0 miles
Clouds Overcast 3000 ft
Dew Point -1 °F
Humidity 84%
Rainfall 0.01 in
Snow Depth Not available.
UV 0 out of 12
Pollen .10 out of 12
Air Quality Not available.
Flu Activity Not available.
METAR KBTM 291053Z AUTO 00000KT 6SM -SN BR OVC030 M16/M18 A3019 RMK AO2 SNB40 SLP312 P0000 T11611183

More Conditions Fewer Conditions

10-Day Weather Forecast

Almanac

Astronomy

Dec. 29, 2014 Rise Set
Actual Time
Civil Twilight
Nautical Twilight
Astronomical Twilight
Moon
Length of Visible Light
Length of Day
Tomorrow will be .
, % of the Moon is Illuminated

Today's Extremes

State Highs State Lows

Community

WunderPhotos

Upload Photos

1,781,567 photos uploaded!

WunderBlogs® & News

Nearby

Air Quality

  Air Quality AQ Index Pollutant
Not available.

Snow Depth

Station Depth Elevation

Earthquake Activity

City Distance Mag. Time & Date
Minimum magnitude displayed is 2.5.

Coastal Water Temperatures

Place Temperature

Nearby Weather Stations